createdAt,value
2018-09-04T00:01:59.927Z,92.50
2018-09-04T00:04:29.274Z,92.50
2018-09-04T00:07:00.678Z,92.30
2018-09-04T00:09:29.436Z,92.50
2018-09-04T00:12:02.513Z,92.50
2018-09-04T00:14:31.995Z,92.50
2018-09-04T00:19:30.346Z,92.40
2018-09-04T00:21:59.710Z,92.60
2018-09-04T00:24:30.393Z,93.20
2018-09-04T00:27:00.298Z,92.60
2018-09-04T00:34:56.940Z,92.90
2018-09-04T00:37:34.180Z,93.00
2018-09-04T00:40:05.934Z,92.80
2018-09-04T00:42:38.796Z,92.70
2018-09-04T00:45:11.249Z,92.90
2018-09-04T00:50:12.469Z,92.90
2018-09-04T00:52:41.778Z,92.90
2018-09-04T00:55:12.977Z,92.60
2018-09-04T00:57:41.657Z,92.70
2018-09-04T01:00:12.495Z,92.90
2018-09-04T01:02:43.802Z,93.00
2018-09-04T01:05:13.146Z,93.00
2018-09-04T01:07:44.527Z,92.80
2018-09-04T01:10:13.242Z,92.60
2018-09-04T01:12:42.814Z,92.90
2018-09-04T01:15:11.422Z,92.60
2018-09-04T01:22:42.672Z,92.70
2018-09-04T01:25:13.781Z,92.70
2018-09-04T01:27:42.896Z,92.80
2018-09-04T01:30:13.743Z,92.80
2018-09-04T01:32:46.258Z,92.60
2018-09-04T01:35:17.320Z,92.80
2018-09-04T01:37:47.026Z,93.40
2018-09-04T01:40:18.096Z,93.50
2018-09-04T01:42:47.718Z,93.20
2018-09-04T01:47:49.589Z,92.80
2018-09-04T01:50:20.553Z,93.10
2018-09-04T02:02:50.887Z,93.40
2018-09-04T02:05:20.303Z,93.20
2018-09-04T02:07:49.666Z,93.20
2018-09-04T02:10:23.424Z,93.60
2018-09-04T02:12:51.923Z,93.50
2018-09-04T02:17:52.336Z,93.40
2018-09-04T02:22:50.469Z,93.10
2018-09-04T02:25:24.462Z,93.30
2018-09-04T02:32:55.159Z,93.80
2018-09-04T02:35:26.243Z,93.80
2018-09-04T02:37:57.271Z,93.70
2018-09-04T02:42:56.533Z,93.60
2018-09-04T02:52:33.353Z,94.10
2018-09-04T02:55:02.401Z,94.10
2018-09-04T02:57:31.501Z,93.80
2018-09-04T03:00:00.614Z,93.60
2018-09-04T03:07:30.962Z,93.40
2018-09-04T03:10:08.958Z,93.40
2018-09-04T03:12:40.458Z,93.60
2018-09-04T03:15:10.174Z,93.80
2018-09-04T03:17:42.748Z,93.70
2018-09-04T03:20:13.890Z,93.60
2018-09-04T03:22:44.844Z,93.50
2018-09-04T03:25:17.643Z,93.70
2018-09-04T03:27:46.359Z,93.70
2018-09-04T03:30:17.545Z,93.60
2018-09-04T03:32:48.647Z,93.50
2018-09-04T03:35:18.603Z,93.60
2018-09-04T03:37:48.639Z,93.50
2018-09-04T03:42:48.238Z,93.40
2018-09-04T03:45:17.195Z,92.90
2018-09-04T03:47:45.979Z,93.20
2018-09-04T03:53:52.169Z,93.30
2018-09-04T03:56:22.832Z,93.30
2018-09-04T03:58:53.072Z,93.40
2018-09-04T04:01:23.177Z,93.50
2018-09-04T04:03:54.507Z,93.60
2018-09-04T04:06:24.487Z,93.70
2018-09-04T04:08:54.443Z,93.70
2018-09-04T04:11:23.429Z,93.70
2018-09-04T04:16:21.490Z,93.50
2018-09-04T04:18:51.439Z,93.40
2018-09-04T04:21:22.882Z,93.30
2018-09-04T04:23:55.215Z,93.10
2018-09-04T04:26:25.667Z,93.20
2018-09-04T04:28:57.844Z,93.20
2018-09-04T04:36:36.028Z,92.60
2018-09-04T04:41:36.105Z,92.60
2018-09-04T04:44:07.012Z,92.80
2018-09-04T04:46:41.079Z,92.80
2018-09-04T04:49:11.582Z,92.90
2018-09-04T04:51:45.367Z,92.80
2018-09-04T04:54:14.856Z,93.00
2018-09-04T04:59:16.867Z,92.90
2018-09-04T05:01:47.276Z,92.80
2018-09-04T05:09:21.511Z,93.00
2018-09-04T05:14:24.819Z,93.20
2018-09-04T05:19:29.372Z,93.20
2018-09-04T05:21:59.795Z,93.10
2018-09-04T05:24:30.357Z,93.30
2018-09-04T05:27:02.472Z,93.30
2018-09-04T05:29:37.548Z,93.20
2018-09-04T05:35:46.139Z,93.40
2018-09-04T05:40:44.180Z,93.50
2018-09-04T05:43:17.224Z,93.50
2018-09-04T05:45:46.451Z,93.50
2018-09-04T05:48:15.977Z,93.90
2018-09-04T05:50:44.606Z,93.40
2018-09-04T05:53:13.511Z,93.50
2018-09-04T05:55:42.336Z,94.00
2018-09-04T05:58:11.073Z,93.60
2018-09-04T06:00:45.710Z,93.70
2018-09-04T06:03:14.131Z,93.90
2018-09-04T06:05:42.693Z,94.10
2018-09-04T06:10:39.677Z,93.90
2018-09-04T06:15:36.728Z,94.00
2018-09-04T06:18:05.318Z,94.30
2018-09-04T06:20:33.838Z,93.90
2018-09-04T06:23:02.332Z,94.00
2018-09-04T06:25:30.872Z,93.90
2018-09-04T06:27:59.362Z,93.90
2018-09-04T06:30:27.897Z,94.10
2018-09-04T06:32:56.423Z,94.20
2018-09-04T06:40:23.805Z,94.10
2018-09-04T06:42:52.396Z,94.40
2018-09-04T06:45:21.131Z,94.60
2018-09-04T06:47:49.943Z,94.70
2018-09-04T06:50:18.443Z,94.90
2018-09-04T06:52:47.101Z,95.10
2018-09-04T06:55:15.593Z,94.90
2018-09-04T06:57:44.245Z,94.80
2018-09-04T07:00:14.362Z,94.80
2018-09-04T07:02:42.874Z,95.10
2018-09-04T07:05:12.210Z,95.30
2018-09-04T07:07:41.301Z,95.20
2018-09-04T07:10:10.440Z,95.60
2018-09-04T07:12:39.531Z,95.20
2018-09-04T07:15:08.337Z,95.50
2018-09-04T07:17:36.780Z,94.80
2018-09-04T07:20:05.667Z,95.10
2018-09-04T07:22:34.390Z,94.80
2018-09-04T07:25:02.978Z,94.20
2018-09-04T07:27:31.699Z,94.30
2018-09-04T07:30:00.203Z,94.00
2018-09-04T07:32:28.684Z,93.80
2018-09-04T07:34:57.178Z,93.90
2018-09-04T07:37:25.751Z,93.60
2018-09-04T07:42:22.526Z,93.60
2018-09-04T07:44:51.078Z,93.60
2018-09-04T07:47:19.587Z,93.90
2018-09-04T07:49:48.067Z,93.90
2018-09-04T07:52:16.614Z,94.20
2018-09-04T07:54:45.113Z,94.10
2018-09-04T07:57:13.579Z,94.40
2018-09-04T07:59:42.067Z,94.40
2018-09-04T08:02:10.569Z,94.30
2018-09-04T08:04:39.068Z,94.60
2018-09-04T08:07:07.743Z,94.40
2018-09-04T08:09:36.222Z,94.20
2018-09-04T08:12:04.767Z,94.10
2018-09-04T08:14:33.209Z,93.80
2018-09-04T08:17:01.824Z,93.70
2018-09-04T08:19:30.379Z,93.90
2018-09-04T08:21:58.890Z,94.00
2018-09-04T08:24:27.465Z,94.00
2018-09-04T08:26:56.077Z,94.40
2018-09-04T08:29:24.641Z,94.30
2018-09-04T08:31:53.154Z,94.50
2018-09-04T08:34:21.664Z,94.40
2018-09-04T08:36:50.131Z,94.60
2018-09-04T08:41:46.960Z,94.80
2018-09-04T08:44:15.490Z,94.80
2018-09-04T08:49:12.239Z,94.50
2018-09-04T08:51:40.776Z,94.60
2018-09-04T08:54:09.296Z,94.10
2018-09-04T08:56:37.613Z,94.40
2018-09-04T08:59:06.761Z,95.00
2018-09-04T09:01:35.336Z,94.80
2018-09-04T09:04:03.800Z,95.10
2018-09-04T09:06:32.252Z,95.30
2018-09-04T09:09:00.713Z,95.40
2018-09-04T09:11:29.515Z,95.00
2018-09-04T09:13:58.196Z,95.40
2018-09-04T09:16:26.893Z,95.50
2018-09-04T09:18:55.370Z,94.70
2018-09-04T09:21:23.862Z,95.00
2018-09-04T09:26:20.877Z,93.70
2018-09-04T09:28:49.497Z,93.70
2018-09-04T09:31:18.099Z,93.80
2018-09-04T09:33:46.838Z,93.90
2018-09-04T09:36:15.322Z,93.60
2018-09-04T09:38:43.998Z,92.70
2018-09-04T09:46:09.027Z,92.80
2018-09-04T09:48:40.273Z,92.70
2018-09-04T09:51:09.637Z,93.00
2018-09-04T09:53:38.464Z,93.60
2018-09-04T09:56:07.151Z,93.50
2018-09-04T09:58:35.576Z,92.40
2018-09-04T10:01:09.493Z,92.80
2018-09-04T10:03:43.389Z,92.30
2018-09-04T10:06:11.913Z,92.80
2018-09-04T10:08:40.384Z,92.80
2018-09-04T10:11:09.020Z,92.50
2018-09-04T10:13:37.615Z,92.90
2018-09-04T10:18:34.484Z,91.90
2018-09-04T10:21:03.018Z,92.10
2018-09-04T10:23:31.562Z,92.00
2018-09-04T10:26:00.035Z,91.90
2018-09-04T10:28:28.495Z,92.30
2018-09-04T10:30:57.123Z,91.90
2018-09-04T10:35:54.056Z,92.10
2018-09-04T10:38:25.727Z,91.70
2018-09-04T10:41:00.158Z,91.70
2018-09-04T10:43:29.672Z,91.60
2018-09-04T10:48:36.023Z,91.90
2018-09-04T10:51:05.026Z,91.80
2018-09-04T10:53:33.469Z,92.50
2018-09-04T10:56:01.986Z,92.40
2018-09-04T10:58:30.488Z,92.50
2018-09-04T11:03:27.596Z,93.00
2018-09-04T11:05:56.223Z,93.30
2018-09-04T11:08:24.875Z,93.20
2018-09-04T11:10:53.491Z,93.60
2018-09-04T11:13:23.435Z,92.60
2018-09-04T11:15:51.964Z,92.60
2018-09-04T11:18:21.808Z,92.30
2018-09-04T11:20:51.357Z,92.40
2018-09-04T11:23:21.897Z,92.40
2018-09-04T11:25:50.587Z,92.60
2018-09-04T11:28:21.476Z,92.20
2018-09-04T11:30:52.051Z,92.00
2018-09-04T11:33:21.359Z,92.30
2018-09-04T11:35:54.946Z,92.40
2018-09-04T11:38:26.767Z,92.10
2018-09-04T11:40:57.719Z,91.70
2018-09-04T11:43:28.484Z,91.60
2018-09-04T11:45:57.665Z,91.30
2018-09-04T11:50:55.105Z,91.80
2018-09-04T11:53:25.113Z,92.20
2018-09-04T11:55:54.784Z,92.70
2018-09-04T11:58:24.304Z,93.30
2018-09-04T12:03:22.467Z,92.80
2018-09-04T12:05:53.197Z,92.40
2018-09-04T12:13:33.371Z,92.00
2018-09-04T12:16:04.863Z,92.00
2018-09-04T12:18:36.439Z,92.30
2018-09-04T12:21:06.767Z,92.50
2018-09-04T12:23:37.213Z,92.10
2018-09-04T12:26:08.133Z,92.20
2018-09-04T12:28:37.418Z,92.10
2018-09-04T12:31:07.472Z,91.30
2018-09-04T12:33:36.900Z,91.00
2018-09-04T12:36:10.562Z,91.70
2018-09-04T12:38:41.021Z,92.60
2018-09-04T12:43:46.676Z,92.40
2018-09-04T12:46:17.313Z,92.50
2018-09-04T12:48:50.296Z,91.50
2018-09-04T12:53:50.951Z,91.50
2018-09-04T12:56:22.097Z,91.50
2018-09-04T12:58:50.904Z,90.80
2018-09-04T13:01:20.387Z,91.00
2018-09-04T13:03:50.401Z,90.40
2018-09-04T13:06:20.417Z,90.90
2018-09-04T13:08:49.999Z,90.30
2018-09-04T13:12:22.981Z,90.60
2018-09-04T13:14:54.483Z,90.80
2018-09-04T13:17:24.801Z,91.00
2018-09-04T13:24:52.549Z,91.80
2018-09-04T13:27:22.824Z,91.50
2018-09-04T13:29:52.142Z,90.80
2018-09-04T13:32:22.982Z,92.10
2018-09-04T13:34:58.627Z,92.40
2018-09-04T13:37:28.594Z,92.40
2018-09-04T13:40:01.632Z,93.10
2018-09-04T13:42:33.728Z,93.30
2018-09-04T13:45:04.920Z,93.70
2018-09-04T13:47:34.400Z,93.80
2018-09-04T13:52:34.039Z,93.50
2018-09-04T13:57:33.796Z,93.30
2018-09-04T14:00:03.509Z,93.50
2018-09-04T14:02:33.903Z,94.10
2018-09-04T14:05:02.843Z,93.70
2018-09-04T14:15:02.468Z,93.80
2018-09-04T14:17:43.975Z,93.80
2018-09-04T14:22:44.007Z,92.70
2018-09-04T14:56:27.281Z,91.00
2018-09-04T15:08:57.593Z,91.50
2018-09-04T15:11:28.515Z,91.90
2018-09-04T15:13:58.490Z,91.90
2018-09-04T15:16:28.899Z,91.80
2018-09-04T15:18:59.777Z,91.80
2018-09-04T15:24:01.300Z,91.50
2018-09-04T15:26:34.173Z,91.20
2018-09-04T15:29:05.664Z,91.60
2018-09-04T15:31:34.431Z,91.50
2018-09-04T15:34:07.042Z,91.30
2018-09-04T15:39:05.315Z,91.30
2018-09-04T15:44:04.751Z,90.70
2018-09-04T15:46:38.977Z,91.10
2018-09-04T15:49:13.653Z,90.90
2018-09-04T15:54:12.482Z,89.00
2018-09-04T15:56:40.796Z,86.90
2018-09-04T15:59:09.286Z,87.70
2018-09-04T16:01:40.662Z,84.80
2018-09-04T16:04:12.202Z,85.90
2018-09-04T16:06:42.691Z,85.60
2018-09-04T16:09:12.822Z,86.10
2018-09-04T16:14:11.455Z,84.10
2018-09-04T16:16:43.056Z,84.60
2018-09-04T16:19:15.638Z,84.90
2018-09-04T16:21:47.942Z,86.10
2018-09-04T16:24:18.329Z,87.70
2018-09-04T16:29:19.989Z,87.60
2018-09-04T16:31:55.200Z,88.30
2018-09-04T16:34:28.083Z,87.30
2018-09-04T16:36:58.535Z,86.30
2018-09-04T16:39:31.428Z,86.50
2018-09-04T16:42:01.404Z,86.00
2018-09-04T16:44:32.523Z,86.20
2018-09-04T16:47:04.208Z,85.40
2018-09-04T16:49:37.717Z,85.50
2018-09-04T16:52:14.164Z,85.40
2018-09-04T16:54:44.302Z,86.10
2018-09-04T16:57:18.111Z,85.60
2018-09-04T16:59:46.613Z,86.70
2018-09-04T17:02:18.567Z,86.40
2018-09-04T17:04:49.760Z,85.50
2018-09-04T17:07:18.923Z,86.00
2018-09-04T17:12:16.696Z,86.10
2018-09-04T17:19:45.929Z,88.50
2018-09-04T17:22:16.083Z,89.00
2018-09-04T17:24:45.681Z,90.00
2018-09-04T17:27:19.102Z,90.40
2018-09-04T17:30:50.591Z,90.40
2018-09-04T17:35:49.809Z,90.90
2018-09-04T17:38:19.676Z,90.70
2018-09-04T17:40:48.300Z,90.70
2018-09-04T17:43:17.091Z,90.50
2018-09-04T17:50:42.446Z,90.50
2018-09-04T17:53:11.025Z,90.80
2018-09-04T18:05:06.233Z,91.40
2018-09-04T18:07:34.875Z,91.50
2018-09-04T18:10:03.634Z,91.50
2018-09-04T18:13:37.174Z,91.40
2018-09-04T18:16:05.650Z,91.30
2018-09-04T18:18:37.972Z,91.20
2018-09-04T18:26:07.010Z,91.40
2018-09-04T18:31:03.956Z,91.10
2018-09-04T18:33:32.654Z,91.20
2018-09-04T18:36:02.062Z,91.30
2018-09-04T18:38:30.714Z,91.30
2018-09-04T18:41:00.198Z,91.30
2018-09-04T18:43:30.690Z,91.30
2018-09-04T18:45:59.831Z,91.50
2018-09-04T18:48:31.341Z,91.60
2018-09-04T18:53:30.711Z,92.10
2018-09-04T18:56:01.072Z,91.00
2018-09-04T18:58:29.732Z,91.30
2018-09-04T19:06:00.265Z,91.30
2018-09-04T19:12:01.865Z,90.80
2018-09-04T19:17:02.227Z,90.80
2018-09-04T19:19:30.907Z,90.80
2018-09-04T19:22:00.494Z,91.10
2018-09-04T19:24:29.195Z,91.20
2018-09-04T19:26:58.833Z,91.30
2018-09-04T19:29:28.171Z,91.10
2018-09-04T19:31:57.532Z,91.10
2018-09-04T19:34:26.957Z,91.10
2018-09-04T19:36:56.268Z,91.00
2018-09-04T19:44:26.749Z,91.20
2018-09-04T19:46:57.564Z,91.30
2018-09-04T19:49:27.272Z,91.20
2018-09-04T19:51:58.377Z,91.00
2018-09-04T19:57:07.374Z,91.20
2018-09-04T19:59:39.657Z,91.40
2018-09-04T20:02:12.260Z,91.90
2018-09-04T20:04:42.933Z,92.00
2018-09-04T20:09:41.099Z,92.10
2018-09-04T20:12:12.352Z,92.00
2018-09-04T20:14:43.349Z,91.70
2018-09-04T20:17:13.335Z,91.70
2018-09-04T20:19:46.257Z,91.90
2018-09-04T20:24:49.761Z,92.00
2018-09-04T20:29:50.042Z,91.90
2018-09-04T20:34:47.921Z,91.40
2018-09-04T20:37:22.322Z,91.30
2018-09-04T20:42:51.419Z,91.70
2018-09-04T20:45:22.742Z,91.90
2018-09-04T20:47:54.896Z,92.00
2018-09-04T20:50:40.078Z,91.90
2018-09-04T20:53:16.931Z,91.70
2018-09-04T20:58:45.173Z,92.10
2018-09-04T21:06:42.914Z,92.00
2018-09-04T21:09:32.836Z,92.10
2018-09-04T21:17:04.094Z,92.10
2018-09-04T21:19:33.737Z,92.10
2018-09-04T21:22:10.046Z,91.90
2018-09-04T21:24:43.669Z,91.70
2018-09-04T21:30:01.027Z,91.70
2018-09-04T21:32:31.120Z,91.70
2018-09-04T21:35:00.934Z,91.50
2018-09-04T21:37:31.756Z,91.30
2018-09-04T21:40:05.499Z,91.40
2018-09-04T21:42:35.129Z,91.50
2018-09-04T21:45:04.906Z,91.60
2018-09-04T21:47:35.212Z,91.20
2018-09-04T21:50:03.588Z,91.10
2018-09-04T21:52:34.630Z,90.90
2018-09-04T21:55:03.344Z,90.70
2018-09-04T22:02:29.350Z,90.40
2018-09-04T22:04:59.807Z,90.30
2018-09-04T22:07:28.868Z,90.20
2018-09-04T22:10:00.160Z,90.10
2018-09-04T22:14:58.360Z,90.00
2018-09-04T22:17:28.991Z,90.30
2018-09-04T22:20:00.078Z,90.40
2018-09-04T22:22:28.638Z,90.70
2018-09-04T22:24:58.611Z,90.80
2018-09-04T22:27:31.396Z,90.70
2018-09-04T22:30:00.686Z,90.90
2018-09-04T22:34:58.363Z,91.50
2018-09-04T22:37:26.730Z,91.60
2018-09-04T22:39:56.179Z,91.90
2018-09-04T22:42:27.191Z,91.30
2018-09-04T22:44:56.434Z,91.20
2018-09-04T22:47:25.764Z,91.20
2018-09-04T22:50:02.279Z,91.30
2018-09-04T22:52:32.499Z,91.40
2018-09-04T22:55:03.140Z,91.50
2018-09-04T22:57:31.954Z,91.90
2018-09-04T23:00:00.668Z,92.00
2018-09-04T23:02:29.216Z,91.30
2018-09-04T23:04:58.282Z,91.00
2018-09-04T23:07:26.812Z,90.60
2018-09-04T23:09:56.359Z,90.80
2018-09-04T23:12:25.139Z,90.80
2018-09-04T23:14:53.836Z,90.60
2018-09-04T23:17:23.281Z,90.70
2018-09-04T23:19:52.000Z,90.90
2018-09-04T23:22:20.541Z,91.00
2018-09-04T23:24:48.963Z,91.30
2018-09-04T23:27:17.564Z,90.90
2018-09-04T23:29:49.610Z,90.90
2018-09-04T23:32:18.171Z,91.10
2018-09-04T23:34:46.693Z,90.90
2018-09-04T23:37:15.362Z,90.70
2018-09-04T23:39:44.476Z,90.60
2018-09-04T23:42:13.118Z,90.30
2018-09-04T23:44:41.767Z,90.30
2018-09-04T23:47:10.350Z,90.50
2018-09-04T23:49:38.941Z,90.80
2018-09-04T23:52:07.559Z,90.80
2018-09-04T23:54:37.195Z,90.80
2018-09-04T23:57:05.940Z,91.10
2018-09-04T23:59:35.485Z,91.20
